Time;durP1;ratioP1;P1;durP2;ratioP2;P2;SDS_P1;SDS_P2;PMS_P1;PMS_P2;Temp;Humidity;BMP_temperature;BMP_pressure;BME280_temperature;BME280_humidity;BME280_pressure;Samples;Min_cycle;Max_cycle;Signal;HPM_P1;HPM_P2
2022/12/30 00:01:15;;;;;;;3.27;2.83;;;;;;;5.51;100.00;96202.72;4954158;28;105860;-63
2022/12/30 00:03:43;;;;;;;3.80;2.77;;;;;;;5.62;100.00;96209.88;4975655;28;101779;-63
2022/12/30 00:06:15;;;;;;;4.20;3.00;;;;;;;5.56;100.00;96207.34;4972052;28;102824;-63
2022/12/30 00:08:50;;;;;;;4.20;3.33;;;;;;;5.49;100.00;96204.81;4954721;28;101981;-63
2022/12/30 00:11:19;;;;;;;4.90;3.53;;;;;;;5.41;100.00;96205.09;4970737;28;106571;-63
2022/12/30 00:33:26;;;;;;;5.13;3.70;;;;;;;4.79;100.00;96225.69;4954505;28;105629;-63
2022/12/30 00:35:53;;;;;;;5.00;4.07;;;;;;;4.63;100.00;96227.06;4970288;28;105657;-63
2022/12/30 00:38:21;;;;;;;5.03;3.80;;;;;;;4.59;100.00;96239.03;4954082;28;101884;-63
2022/12/30 00:43:33;;;;;;;5.07;4.40;;;;;;;4.63;100.00;96252.63;4952577;28;105696;-63
2022/12/30 00:46:02;;;;;;;5.03;4.33;;;;;;;4.52;100.00;96258.56;4954224;28;102348;-63
2022/12/30 00:56:44;;;;;;;4.83;4.13;;;;;;;4.59;100.00;96275.91;4953464;28;105365;-63
2022/12/30 00:59:13;;;;;;;5.67;4.33;;;;;;;4.61;100.00;96283.59;4953705;28;101921;-63
2022/12/30 01:01:42;;;;;;;6.13;4.93;;;;;;;4.69;100.00;96296.50;4954321;28;105250;-63
2022/12/30 01:04:09;;;;;;;5.53;5.00;;;;;;;4.66;100.00;96308.28;4953252;28;105624;-63
2022/12/30 01:06:37;;;;;;;5.30;4.80;;;;;;;4.70;100.00;96301.53;4953663;28;101859;-63
2022/12/30 01:09:05;;;;;;;6.30;4.70;;;;;;;4.70;100.00;96306.03;4953977;28;105294;-63
2022/12/30 01:11:32;;;;;;;6.03;5.07;;;;;;;4.64;100.00;96317.44;4956567;28;105811;-63
2022/12/30 01:13:59;;;;;;;6.37;4.93;;;;;;;4.63;100.00;96313.19;4953652;28;105762;-63
2022/12/30 01:16:27;;;;;;;5.43;4.37;;;;;;;4.64;100.00;96312.94;4953047;28;104239;-63
2022/12/30 01:18:55;;;;;;;4.60;4.10;;;;;;;4.60;100.00;96319.69;4970130;28;101933;-63
2022/12/30 01:21:23;;;;;;;5.93;4.40;;;;;;;4.64;100.00;96322.69;4971619;28;103033;-63
2022/12/30 01:23:50;;;;;;;5.80;4.30;;;;;;;4.64;100.00;96323.47;4970347;28;103036;-63
2022/12/30 01:26:18;;;;;;;4.93;4.27;;;;;;;4.60;100.00;96324.94;4953760;28;101799;-63
2022/12/30 01:28:45;;;;;;;5.70;4.57;;;;;;;4.66;100.00;96332.00;4952628;28;105337;-63
2022/12/30 01:31:13;;;;;;;6.27;4.33;;;;;;;4.73;100.00;96329.28;4970756;28;103097;-63
2022/12/30 01:33:40;;;;;;;5.87;4.70;;;;;;;4.71;100.00;96329.53;4956875;28;101970;-63
2022/12/30 01:36:09;;;;;;;4.90;4.40;;;;;;;4.74;100.00;96338.81;4970480;28;102850;-63
2022/12/30 01:38:37;;;;;;;5.10;4.43;;;;;;;4.71;100.00;96337.41;4953206;28;102238;-63
2022/12/30 01:41:04;;;;;;;5.67;4.73;;;;;;;4.67;100.00;96338.88;4953757;28;105756;-63
2022/12/30 01:43:48;;;;;;;4.40;4.00;;;;;;;4.78;100.00;96342.63;4970232;28;102787;-63
2022/12/30 01:46:21;;;;;;;5.07;4.10;;;;;;;4.77;100.00;96354.19;4953225;28;101909;-63
2022/12/30 01:48:50;;;;;;;4.83;4.33;;;;;;;4.73;100.00;96347.72;4953206;28;103837;-63
2022/12/30 01:51:26;;;;;;;5.83;4.93;;;;;;;4.79;100.00;96357.41;4968967;28;104422;-63
2022/12/30 01:53:55;;;;;;;5.83;4.77;;;;;;;4.73;100.00;96363.53;4952481;28;102245;-63
2022/12/30 01:56:28;;;;;;;4.70;4.27;;;;;;;4.79;100.00;96357.41;4956354;28;105287;-63
2022/12/30 01:59:00;;;;;;;5.40;4.77;;;;;;;4.81;100.00;96360.63;4953392;28;101841;-63
2022/12/30 02:01:27;;;;;;;5.23;4.53;;;;;;;4.91;100.00;96364.38;4970947;28;103024;-63
2022/12/30 02:04:00;;;;;;;7.40;4.53;;;;;;;4.95;100.00;96362.13;4953898;28;104385;-63
2022/12/30 02:06:34;;;;;;;5.30;4.30;;;;;;;4.92;100.00;96376.53;4953243;28;101821;-63
2022/12/30 02:09:01;;;;;;;4.20;3.80;;;;;;;4.87;100.00;96392.22;4953441;28;105299;-63
2022/12/30 02:11:30;;;;;;;6.73;3.23;;;;;;;5.15;100.00;96418.13;4952611;28;105846;-63
2022/12/30 02:13:58;;;;;;;3.87;3.40;;;;;;;5.22;100.00;96403.03;4969178;28;102247;-63
2022/12/30 02:16:37;;;;;;;4.37;3.43;;;;;;;5.27;100.00;96408.47;4952926;28;105725;-63
2022/12/30 02:19:39;;;;;;;3.87;3.13;;;;;;;5.32;100.00;96409.44;4955208;28;101977;-63
2022/12/30 02:22:18;;;;;;;4.03;3.63;;;;;;;5.41;100.00;96402.84;4952701;28;105488;-63
2022/12/30 02:25:15;;;;;;;3.60;3.30;;;;;;;5.44;100.00;96406.88;4952254;28;105274;-63
2022/12/30 02:28:23;;;;;;;3.60;2.90;;;;;;;5.50;100.00;96411.28;4952533;28;102033;-63
2022/12/30 02:31:14;;;;;;;2.77;2.57;;;;;;;5.65;100.00;96417.03;4931290;28;105571;-63
2022/12/30 02:33:51;;;;;;;3.97;2.60;;;;;;;5.67;100.00;96430.81;4968845;28;105495;-63
2022/12/30 02:36:26;;;;;;;2.50;2.13;;;;;;;5.85;100.00;96438.78;4970306;28;101924;-63
2022/12/30 02:39:03;;;;;;;2.40;2.20;;;;;;;5.89;100.00;96445.22;4952536;28;105932;-63
2022/12/30 02:44:38;;;;;;;3.57;3.20;;;;;;;5.75;100.00;96443.72;4952385;28;105471;-63
2022/12/30 02:47:15;;;;;;;3.77;3.00;;;;;;;5.67;100.00;96449.28;4970149;28;102897;-63
2022/12/30 02:52:14;;;;;;;4.43;3.20;;;;;;;5.63;100.00;96446.25;4952576;28;101913;-63
2022/12/30 02:52:34;;;;;;;3.43;3.13;;;;;;;5.63;100.00;96450.75;4952355;28;105257;-63
2022/12/30 02:55:01;;;;;;;2.97;2.60;;;;;;;5.55;100.00;96449.19;4969402;28;102860;-63
2022/12/30 02:57:30;;;;;;;2.90;2.60;;;;;;;5.62;100.00;96449.91;4952806;28;102585;-63
2022/12/30 03:06:00;;;;;;;6.20;4.67;;;;;;;5.54;100.00;96458.13;4956114;28;101952;-63
2022/12/30 03:08:35;;;;;;;4.57;3.53;;;;;;;5.46;100.00;96470.78;4955187;28;104570;-63
2022/12/30 03:11:13;;;;;;;3.57;3.20;;;;;;;5.50;100.00;96477.22;4955574;28;101791;-63
2022/12/30 03:13:49;;;;;;;3.67;2.77;;;;;;;5.48;100.00;96482.75;4955423;28;105269;-63
2022/12/30 03:16:23;;;;;;;3.07;2.77;;;;;;;5.41;100.00;96481.97;4954740;28;105735;-63
2022/12/30 03:18:52;;;;;;;2.93;2.63;;;;;;;5.40;100.00;96472.44;4955511;28;101983;-63
2022/12/30 03:21:22;;;;;;;2.40;2.20;;;;;;;5.42;100.00;96485.41;4955594;28;104859;-63
2022/12/30 03:29:28;;;;;;;2.40;2.10;;;;;;;5.32;100.00;96500.91;4957780;28;103764;-63
2022/12/30 03:31:55;;;;;;;2.60;2.40;;;;;;;5.34;100.00;96504.94;4973317;28;101762;-63
2022/12/30 03:34:25;;;;;;;2.70;2.50;;;;;;;5.34;100.00;96499.69;4973108;28;102974;-63
2022/12/30 03:36:57;;;;;;;2.07;1.83;;;;;;;5.32;100.00;96500.91;4954672;28;105832;-63
2022/12/30 03:39:29;;;;;;;3.30;2.20;;;;;;;5.31;100.00;96507.22;4955268;28;102020;-63
2022/12/30 03:41:57;;;;;;;3.10;2.13;;;;;;;5.32;100.00;96511.47;4955384;28;105386;-63
2022/12/30 03:44:25;;;;;;;2.23;2.03;;;;;;;5.28;100.00;96518.19;4972381;28;103308;-63
2022/12/30 03:46:52;;;;;;;1.90;1.80;;;;;;;5.25;100.00;96511.50;4955108;28;101941;-63
2022/12/30 03:49:19;;;;;;;2.10;1.90;;;;;;;5.28;100.00;96513.72;4955128;28;105497;-63
2022/12/30 03:51:48;;;;;;;2.93;2.40;;;;;;;5.29;100.00;96517.19;4957506;28;105713;-63
2022/12/30 03:54:15;;;;;;;2.20;1.80;;;;;;;5.30;100.00;96516.16;4955433;28;104943;-63
2022/12/30 03:56:42;;;;;;;2.17;2.00;;;;;;;5.26;100.00;96517.59;4954746;28;105593;-63
2022/12/30 03:59:09;;;;;;;1.90;1.80;;;;;;;5.30;100.00;96524.06;4955014;28;101958;-63
2022/12/30 04:01:36;;;;;;;2.00;1.90;;;;;;;5.34;100.00;96525.25;4954785;28;105573;-63
2022/12/30 04:04:04;;;;;;;2.00;1.80;;;;;;;5.34;100.00;96536.59;4953970;28;105667;-63
2022/12/30 04:06:30;;;;;;;1.90;1.80;;;;;;;5.36;100.00;96531.09;4971193;28;101824;-63
2022/12/30 04:08:59;;;;;;;2.20;1.97;;;;;;;5.35;100.00;96522.38;4970929;28;105319;-63
2022/12/30 04:11:26;;;;;;;2.00;1.80;;;;;;;5.35;100.00;96532.13;4970622;28;105548;-63
2022/12/30 04:13:53;;;;;;;1.70;1.60;;;;;;;5.35;100.00;96527.66;4976295;28;101857;-63
2022/12/30 04:16:20;;;;;;;2.93;1.90;;;;;;;5.36;100.00;96528.47;4953997;28;103991;-63
2022/12/30 04:18:47;;;;;;;1.57;1.47;;;;;;;5.37;100.00;96525.63;4970839;28;101911;-63
2022/12/30 04:21:14;;;;;;;1.37;1.27;;;;;;;5.38;100.00;96531.69;4954720;28;105032;-63
2022/12/30 04:23:41;;;;;;;1.90;1.80;;;;;;;5.41;100.00;96532.06;4953816;28;105521;-63
2022/12/30 04:26:09;;;;;;;1.70;1.60;;;;;;;5.44;100.00;96529.00;4954887;28;101962;-63
2022/12/30 04:28:37;;;;;;;1.67;1.57;;;;;;;5.40;100.00;96537.59;4953693;28;105052;-63
2022/12/30 04:31:04;;;;;;;1.40;1.30;;;;;;;5.39;100.00;96531.47;4953764;28;105457;-63
2022/12/30 04:33:31;;;;;;;1.60;1.50;;;;;;;5.48;100.00;96542.56;4957944;28;102344;-63
2022/12/30 04:35:58;;;;;;;1.60;1.50;;;;;;;5.49;100.00;96534.47;4970175;28;104945;-63
2022/12/30 04:38:25;;;;;;;1.53;1.43;;;;;;;5.51;100.00;96542.16;4954324;28;102023;-63
2022/12/30 04:40:53;;;;;;;1.63;1.50;;;;;;;5.52;100.00;96535.84;4954175;28;104942;-63
2022/12/30 04:43:22;;;;;;;2.03;1.33;;;;;;;5.52;100.00;96547.19;4953820;28;105132;-63
2022/12/30 04:45:49;;;;;;;1.30;1.30;;;;;;;5.54;100.00;96547.00;4954670;28;101967;-63
2022/12/30 04:48:16;;;;;;;1.53;1.43;;;;;;;5.51;100.00;96545.59;4954292;28;106008;-63
2022/12/30 04:50:43;;;;;;;1.37;1.23;;;;;;;5.52;100.00;96543.78;4953921;28;105605;-63
2022/12/30 04:53:12;;;;;;;1.17;1.17;;;;;;;5.51;100.00;96542.16;4954289;28;101852;-63
2022/12/30 04:55:39;;;;;;;1.27;1.17;;;;;;;5.57;100.00;96544.72;4957141;28;105408;-63
2022/12/30 04:58:07;;;;;;;1.63;1.40;;;;;;;5.53;100.00;96540.09;4954377;28;101983;-63
2022/12/30 05:00:35;;;;;;;1.40;1.30;;;;;;;5.58;100.00;96542.91;4972112;28;102566;-63
2022/12/30 05:03:03;;;;;;;1.10;1.10;;;;;;;5.54;100.00;96542.53;4953717;28;105093;-63
2022/12/30 05:05:30;;;;;;;1.73;1.30;;;;;;;5.52;100.00;96538.50;4954069;28;102068;-63
2022/12/30 05:07:57;;;;;;;1.20;1.10;;;;;;;5.50;100.00;96536.06;4954496;28;105330;-63
2022/12/30 05:10:24;;;;;;;1.07;1.00;;;;;;;5.46;100.00;96536.72;4953351;28;105415;-63
2022/12/30 05:12:51;;;;;;;1.30;1.20;;;;;;;5.46;100.00;96531.44;4953730;28;102034;-63
2022/12/30 05:15:18;;;;;;;1.07;1.07;;;;;;;5.47;100.00;96533.06;4953777;28;105304;-63
2022/12/30 05:17:46;;;;;;;1.63;1.23;;;;;;;5.49;100.00;96528.38;4974132;28;103184;-63
2022/12/30 05:20:13;;;;;;;1.00;1.00;;;;;;;5.49;100.00;96536.28;4970010;28;105358;-64
2022/12/30 05:22:40;;;;;;;1.17;1.10;;;;;;;5.47;100.00;96536.50;4953167;28;105303;-63
2022/12/30 05:27:52;;;;;;;1.03;1.03;;;;;;;5.41;100.00;96542.63;4953794;28;105164;-63
2022/12/30 05:30:19;;;;;;;1.47;1.00;;;;;;;5.43;100.00;96535.31;4968596;28;105249;-64
2022/12/30 05:32:48;;;;;;;1.07;1.03;;;;;;;5.46;100.00;96542.00;4971243;28;101760;-63
2022/12/30 05:35:14;;;;;;;1.00;0.80;;;;;;;5.47;100.00;96536.50;4969664;28;105194;-63
2022/12/30 05:37:41;;;;;;;1.00;0.93;;;;;;;5.48;100.00;96534.66;4968901;28;105230;-63
2022/12/30 05:40:10;;;;;;;1.77;1.00;;;;;;;5.51;100.00;96536.88;4956712;28;101857;-64
2022/12/30 05:42:38;;;;;;;1.00;1.00;;;;;;;5.48;100.00;96521.47;4953004;28;104432;-63
2022/12/30 05:45:06;;;;;;;1.83;1.10;;;;;;;5.53;100.00;96519.00;4953412;28;101943;-63
2022/12/30 05:47:33;;;;;;;1.43;1.40;;;;;;;5.45;100.00;96521.91;4952992;28;105771;-63
2022/12/30 05:50:02;;;;;;;1.60;1.50;;;;;;;5.40;100.00;96524.41;4952621;28;105103;-64
2022/12/30 05:52:30;;;;;;;1.70;1.60;;;;;;;5.35;100.00;96529.50;4970816;28;101995;-63
2022/12/30 05:54:56;;;;;;;2.97;1.70;;;;;;;5.36;100.00;96520.56;4953487;28;105197;-63
2022/12/30 05:57:23;;;;;;;1.80;1.70;;;;;;;5.42;100.00;96517.06;4952565;28;105633;-63
2022/12/30 05:59:50;;;;;;;1.57;1.47;;;;;;;5.44;100.00;96512.38;4953094;28;101990;-63
2022/12/30 06:02:17;;;;;;;1.60;1.50;;;;;;;5.41;100.00;96515.47;4955919;28;105624;-63
2022/12/30 06:04:44;;;;;;;3.83;1.50;;;;;;;5.21;100.00;96504.25;4953219;28;102017;-63
2022/12/30 06:07:12;;;;;;;1.23;1.23;;;;;;;5.24;100.00;96503.81;4953027;28;103999;-63
2022/12/30 06:09:39;;;;;;;1.67;1.33;;;;;;;5.14;100.00;96506.13;4970063;28;102715;-63
2022/12/30 06:12:07;;;;;;;1.47;1.30;;;;;;;5.00;100.00;96500.13;4952915;28;101911;-62
2022/12/30 06:14:33;;;;;;;1.97;1.30;;;;;;;4.87;100.00;96497.59;4952677;28;105361;-62
2022/12/30 06:17:00;;;;;;;1.60;1.50;;;;;;;4.93;100.00;96496.75;4969953;28;103184;-64
2022/12/30 06:19:27;;;;;;;1.70;1.20;;;;;;;4.80;100.00;96496.00;4952934;28;102013;-65
2022/12/30 06:21:55;;;;;;;1.40;1.30;;;;;;;4.49;100.00;96488.06;4953049;28;105667;-64
2022/12/30 06:24:24;;;;;;;1.73;1.00;;;;;;;4.36;100.00;96499.47;4971781;28;105559;-64
2022/12/30 06:26:51;;;;;;;3.73;1.40;;;;;;;4.43;100.00;96484.44;4970262;28;102647;-64
2022/12/30 06:29:18;;;;;;;1.77;1.63;;;;;;;4.44;100.00;96482.63;4951792;28;104168;-65
2022/12/30 06:31:45;;;;;;;1.70;1.27;;;;;;;4.32;100.00;96484.31;4952481;28;101912;-65
2022/12/30 06:34:12;;;;;;;1.53;1.30;;;;;;;4.33;100.00;96483.28;4952618;28;104941;-65
2022/12/30 06:36:38;;;;;;;1.83;1.43;;;;;;;4.35;100.00;96484.69;4952017;28;105491;-65
2022/12/30 06:39:07;;;;;;;1.37;1.27;;;;;;;4.34;100.00;96484.91;4952469;28;102006;-65
2022/12/30 06:41:35;;;;;;;1.20;1.20;;;;;;;4.27;100.00;96487.53;4971637;28;103421;-62
2022/12/30 06:44:02;;;;;;;1.63;1.30;;;;;;;4.13;100.00;96483.34;4958867;28;105215;-65
2022/12/30 06:46:29;;;;;;;1.63;1.53;;;;;;;4.12;100.00;96494.09;4973935;28;102864;-62
2022/12/30 06:48:56;;;;;;;4.17;1.73;;;;;;;3.92;100.00;96485.44;4955490;28;105347;-63
2022/12/30 06:51:22;;;;;;;1.93;1.50;;;;;;;3.94;100.00;96489.47;4956004;28;102318;-63
2022/12/30 06:53:49;;;;;;;2.00;1.37;;;;;;;3.94;100.00;96494.75;4972122;28;105115;-62
2022/12/30 06:56:17;;;;;;;2.50;2.17;;;;;;;3.93;100.00;96492.34;4955288;28;105207;-63
2022/12/30 06:58:45;;;;;;;2.57;2.37;;;;;;;3.89;100.00;96493.75;4973587;28;101814;-62
2022/12/30 07:01:12;;;;;;;2.90;2.20;;;;;;;3.91;100.00;96489.09;4972016;28;104735;-62
2022/12/30 07:03:39;;;;;;;2.83;2.50;;;;;;;3.92;100.00;96495.97;4955199;28;105661;-63
2022/12/30 07:06:06;;;;;;;3.23;2.80;;;;;;;3.92;100.00;96503.84;4976880;28;101761;-63
2022/12/30 07:08:33;;;;;;;2.80;2.60;;;;;;;3.92;100.00;96503.84;4955050;28;105409;-63
2022/12/30 07:11:00;;;;;;;3.23;2.47;;;;;;;3.95;100.00;96506.09;4973522;28;101908;-63
2022/12/30 07:13:29;;;;;;;2.60;2.40;;;;;;;4.09;100.00;96497.94;4971862;28;105331;-63
2022/12/30 07:15:57;;;;;;;3.23;3.00;;;;;;;4.06;100.00;96500.19;4954805;28;105049;-63
2022/12/30 07:18:24;;;;;;;3.13;2.87;;;;;;;4.06;100.00;96487.84;4955394;28;101974;-63
2022/12/30 07:20:51;;;;;;;3.20;2.20;;;;;;;4.09;100.00;96476.09;4955703;28;105057;-63
2022/12/30 07:23:18;;;;;;;3.50;2.73;;;;;;;4.12;100.00;96467.78;4954775;28;105263;-63
2022/12/30 07:25:46;;;;;;;4.00;3.60;;;;;;;4.19;100.00;96479.91;4955249;28;101806;-63
2022/12/30 07:28:13;;;;;;;4.53;4.13;;;;;;;4.19;100.00;96492.22;4957947;28;103772;-63
2022/12/30 07:30:41;;;;;;;6.57;5.63;;;;;;;4.12;100.00;96484.38;4955519;28;102215;-63
2022/12/30 07:33:10;;;;;;;5.03;4.53;;;;;;;4.18;100.00;96475.66;4954678;28;105519;-63
2022/12/30 07:35:37;;;;;;;9.93;6.63;;;;;;;4.15;100.00;96472.63;4954655;28;104340;-63
2022/12/30 07:38:04;;;;;;;12.40;9.33;;;;;;;4.08;100.00;96480.53;4955295;28;101805;-63
2022/12/30 07:40:31;;;;;;;10.23;7.63;;;;;;;3.93;100.00;96490.50;4955031;28;104349;-63
2022/12/30 07:42:58;;;;;;;6.30;5.10;;;;;;;3.84;100.00;96488.31;4972337;28;103251;-63
2022/12/30 07:45:25;;;;;;;6.40;5.10;;;;;;;3.89;100.00;96486.69;4955078;28;102115;-63
2022/12/30 07:47:52;;;;;;;5.33;4.83;;;;;;;4.01;100.00;96490.28;4954943;28;105500;-63
2022/12/30 07:50:21;;;;;;;4.57;4.10;;;;;;;4.19;100.00;96492.22;4957652;28;105212;-63
2022/12/30 07:52:49;;;;;;;7.17;4.03;;;;;;;4.26;100.00;96493.03;4954790;28;105155;-62
2022/12/30 07:55:17;;;;;;;4.73;4.33;;;;;;;4.38;100.00;96492.19;4972542;28;102814;-70
2022/12/30 07:57:44;;;;;;;5.57;3.93;;;;;;;4.49;100.00;96488.06;4955018;28;102318;-71
2022/12/30 08:00:12;;;;;;;3.50;3.20;;;;;;;4.63;100.00;96484.38;4955311;28;105404;-65
2022/12/30 08:02:46;;;;;;;4.73;4.23;;;;;;;4.44;100.00;96485.25;4954427;28;105723;-65
2022/12/30 08:05:14;;;;;;;10.80;8.50;;;;;;;4.41;100.00;96493.56;4954995;28;101780;-66
2022/12/30 08:07:42;;;;;;;4.63;4.03;;;;;;;4.47;100.00;96511.97;4954852;28;105480;-66
2022/12/30 08:10:10;;;;;;;3.20;2.90;;;;;;;4.51;100.00;96504.44;4954146;28;105895;-66
2022/12/30 08:13:11;;;;;;;4.40;3.30;;;;;;;4.62;100.00;96511.69;4975842;28;101847;-66
2022/12/30 08:15:39;;;;;;;9.83;8.83;;;;;;;4.65;100.00;96506.81;4954221;28;105399;-66
2022/12/30 08:18:07;;;;;;;5.30;4.80;;;;;;;4.68;100.00;96509.03;4954827;28;101962;-66
2022/12/30 08:20:34;;;;;;;5.20;4.70;;;;;;;4.69;100.00;96492.22;4954844;28;105360;-66
2022/12/30 08:23:35;;;;;;;5.23;4.47;;;;;;;4.79;100.00;96494.38;4954109;28;105505;-66
2022/12/30 08:26:05;;;;;;;4.50;4.10;;;;;;;4.78;100.00;96492.75;4954703;28;101799;-66
2022/12/30 08:28:32;;;;;;;4.97;4.20;;;;;;;4.66;100.00;96494.47;4953532;28;105346;-66
2022/12/30 08:30:59;;;;;;;3.87;3.57;;;;;;;4.75;100.00;96495.84;4953211;28;104398;-66
2022/12/30 08:33:26;;;;;;;3.73;3.43;;;;;;;4.66;100.00;96491.81;4953940;28;102126;-66
2022/12/30 08:35:53;;;;;;;4.10;3.70;;;;;;;4.63;100.00;96497.53;4957010;28;105555;-66
2022/12/30 08:38:21;;;;;;;3.93;3.63;;;;;;;4.62;100.00;96498.53;4953937;28;101929;-66
2022/12/30 08:40:49;;;;;;;4.70;4.20;;;;;;;4.82;100.00;96504.50;4954319;28;105370;-66
2022/12/30 08:43:18;;;;;;;6.27;4.70;;;;;;;5.07;100.00;96506.16;4953471;28;104517;-66
2022/12/30 08:45:45;;;;;;;5.43;4.70;;;;;;;5.31;100.00;96515.94;4954071;28;101809;-66
2022/12/30 08:48:12;;;;;;;4.53;4.13;;;;;;;5.50;100.00;96522.06;4954048;28;105421;-66
2022/12/30 08:50:41;;;;;;;4.53;3.60;;;;;;;5.60;100.00;96512.66;4953076;28;105906;-66
2022/12/30 08:53:08;;;;;;;3.07;2.77;;;;;;;5.87;100.00;96511.41;4954054;28;101983;-66
2022/12/30 08:55:36;;;;;;;4.77;3.17;;;;;;;5.82;100.00;96513.09;4956987;28;105434;-72
2022/12/30 08:58:05;;;;;;;4.50;4.00;;;;;;;5.68;100.00;96514.22;4953875;28;102104;-67
2022/12/30 09:00:31;;;;;;;4.53;3.87;;;;;;;5.67;100.00;96509.97;4953945;28;105071;-67
2022/12/30 09:02:58;;;;;;;4.80;3.80;;;;;;;5.66;100.00;96516.25;4952718;28;103870;-67
2022/12/30 09:05:25;;;;;;;6.70;5.57;;;;;;;5.84;100.00;96508.41;4953447;28;101910;-67
2022/12/30 09:07:52;;;;;;;5.63;4.80;;;;;;;6.02;100.00;96508.44;4953719;28;104881;-67
2022/12/30 09:10:19;;;;;;;5.10;4.37;;;;;;;6.19;100.00;96505.00;4953191;28;104071;-67
2022/12/30 09:12:46;;;;;;;5.47;4.33;;;;;;;6.33;100.00;96503.81;4953415;28;101866;-65
2022/12/30 09:15:15;;;;;;;4.00;3.60;;;;;;;6.47;100.00;96509.75;4971627;28;102821;-69
2022/12/30 09:17:42;;;;;;;5.93;4.03;;;;;;;6.70;100.00;96507.22;4956437;28;105062;-65
2022/12/30 09:20:10;;;;;;;6.50;4.60;;;;;;;6.87;100.00;96508.22;4967969;28;102945;-66
2022/12/30 09:22:38;;;;;;;8.23;6.00;;;;;;;6.92;100.00;96506.50;4950469;28;105651;-69
2022/12/30 09:25:06;;;;;;;5.03;4.43;;;;;;;7.16;100.00;96496.81;4965014;28;102957;-65
2022/12/30 09:27:34;;;;;;;5.50;4.83;;;;;;;7.24;100.00;96492.00;4969644;28;104806;-69
2022/12/30 09:30:01;;;;;;;5.03;3.80;;;;;;;7.38;100.00;96485.50;4963212;28;105744;-71
2022/12/30 09:32:56;;;;;;;7.33;4.33;;;;;;;7.40;100.00;96485.22;4953477;28;102010;-66
2022/12/30 09:35:23;;;;;;;2.80;2.60;;;;;;;7.50;100.00;96477.53;4953406;28;105239;-69
2022/12/30 09:37:50;;;;;;;2.60;2.40;;;;;;;7.65;100.00;96467.31;4952598;28;105484;-76
2022/12/30 09:40:24;;;;;;;4.70;3.83;;;;;;;7.79;100.00;96468.72;4974245;28;102246;-68
2022/12/30 09:43:17;;;;;;;4.17;3.30;;;;;;;7.87;100.00;96471.00;4952996;28;105290;-63
2022/12/30 09:46:00;;;;;;;2.73;2.40;;;;;;;8.01;100.00;96462.59;4961399;28;102003;-67
2022/12/30 09:48:34;;;;;;;3.33;3.00;;;;;;;7.97;100.00;96460.63;4961952;28;105857;-68
2022/12/30 09:51:05;;;;;;;3.23;2.33;;;;;;;8.14;100.00;96453.59;4952893;28;104992;-68
2022/12/30 09:54:07;;;;;;;3.17;2.63;;;;;;;8.28;100.00;96436.44;4952686;28;102034;-63
2022/12/30 09:56:38;;;;;;;2.80;2.50;;;;;;;8.42;100.00;96437.75;4951413;28;102434;-63
2022/12/30 09:59:12;;;;;;;2.10;2.00;;;;;;;8.37;100.00;96429.72;4936297;28;105788;-65
2022/12/30 10:01:44;;;;;;;2.37;2.17;;;;;;;8.53;100.00;96421.84;4970759;28;101814;-70
2022/12/30 10:04:31;;;;;;;3.13;2.03;;;;;;;8.64;100.00;96423.63;4971900;28;105758;-75
2022/12/30 10:07:07;;;;;;;2.67;2.13;;;;;;;8.66;100.00;96416.25;4969100;28;102382;-68
2022/12/30 10:09:49;;;;;;;1.80;1.70;;;;;;;8.63;100.00;96410.59;4969218;28;105571;-71
2022/12/30 10:12:47;;;;;;;1.37;1.27;;;;;;;8.78;100.00;96410.91;4965616;28;105857;-68
2022/12/30 10:15:28;;;;;;;2.77;1.40;;;;;;;8.96;100.00;96400.88;4952662;28;101880;-65
2022/12/30 10:18:21;;;;;;;1.40;1.20;;;;;;;9.12;100.00;96391.31;4953169;28;104835;-65
2022/12/30 10:21:05;;;;;;;1.13;1.13;;;;;;;9.16;100.00;96379.19;4952786;28;105431;-71
2022/12/30 10:24:15;;;;;;;1.43;1.33;;;;;;;9.28;100.00;96371.94;4970922;28;101818;-64
2022/12/30 10:26:47;;;;;;;2.10;1.17;;;;;;;9.32;100.00;96367.75;4953384;28;105668;-65
2022/12/30 10:29:18;;;;;;;2.00;1.00;;;;;;;9.60;100.00;96351.72;4955689;28;103922;-73
2022/12/30 10:31:48;;;;;;;0.90;0.90;;;;;;;9.78;100.00;96346.09;4971114;28;102557;-65
2022/12/30 10:34:18;;;;;;;1.00;0.90;;;;;;;9.90;100.00;96344.94;4969840;28;102929;-64
2022/12/30 10:36:54;;;;;;;0.80;0.80;;;;;;;9.87;100.00;96336.66;4952815;28;101892;-63
2022/12/30 10:39:25;;;;;;;0.90;0.90;;;;;;;9.87;100.00;96332.13;4952832;28;105120;-69
2022/12/30 10:42:09;;;;;;;0.67;0.60;;;;;;;9.88;100.00;96320.47;4952408;28;105507;-70
2022/12/30 10:44:46;;;;;;;1.00;1.00;;;;;;;10.00;100.00;96315.84;4952873;28;101793;-65
2022/12/30 10:47:30;;;;;;;0.87;0.87;;;;;;;10.07;100.00;96310.34;4970911;28;102366;-66
2022/12/30 10:50:31;;;;;;;1.00;1.00;;;;;;;10.16;100.00;96312.34;4952190;28;105919;-63
2022/12/30 10:53:43;;;;;;;0.90;0.90;;;;;;;10.20;100.00;96317.97;4956174;28;101818;-64
2022/12/30 10:56:20;;;;;;;0.97;0.97;;;;;;;10.18;100.00;96306.75;4952105;28;105456;-63
2022/12/30 10:58:48;;;;;;;1.17;1.00;;;;;;;10.30;100.00;96304.78;4970340;28;101707;-70
2022/12/30 11:01:18;;;;;;;0.80;0.80;;;;;;;10.35;100.00;96292.34;4952399;28;103875;-71
2022/12/30 11:03:59;;;;;;;0.87;0.87;;;;;;;10.47;100.00;96286.88;4951854;28;105921;-71
2022/12/30 11:06:28;;;;;;;3.17;1.83;;;;;;;10.56;100.00;96286.16;4952523;28;101841;-71
2022/12/30 11:09:16;;;;;;;6.37;3.30;;;;;;;10.68;100.00;96278.81;4952145;28;105351;-71
2022/12/30 11:14:45;;;;;;;7.10;3.17;;;;;;;10.77;100.00;96265.84;4955641;28;101913;-71
2022/12/30 11:17:24;;;;;;;9.23;4.63;;;;;;;10.84;100.00;96258.47;4951835;28;104913;-71
2022/12/30 11:19:53;;;;;;;4.23;3.00;;;;;;;10.82;100.00;96252.59;4952353;28;101875;-71
2022/12/30 11:22:34;;;;;;;4.17;3.00;;;;;;;10.83;100.00;96243.56;4952171;28;105193;-71
2022/12/30 11:25:04;;;;;;;2.50;2.03;;;;;;;11.01;100.00;96245.81;4951743;28;105486;-71
2022/12/30 11:27:38;;;;;;;3.00;2.70;;;;;;;10.93;100.00;96246.28;4952986;28;101913;-71
2022/12/30 11:30:07;;;;;;;3.47;2.30;;;;;;;11.01;100.00;96245.81;4955442;28;105600;-71
2022/12/30 11:32:49;;;;;;;3.27;2.73;;;;;;;11.16;100.00;96237.91;4954811;28;105407;-71
2022/12/30 11:35:38;;;;;;;6.37;4.20;;;;;;;11.19;100.00;96227.59;4955423;28;101832;-71
2022/12/30 11:38:27;;;;;;;2.80;1.80;;;;;;;11.25;100.00;96221.22;4958074;28;105039;-72
2022/12/30 11:40:54;;;;;;;4.77;3.87;;;;;;;11.21;100.00;96224.63;4955232;28;101922;-72
2022/12/30 11:43:25;;;;;;;4.90;4.10;;;;;;;11.38;100.00;96212.75;4955327;28;105374;-72
2022/12/30 11:46:02;;;;;;;4.77;4.03;;;;;;;11.41;100.00;96209.59;4954703;28;105574;-72
2022/12/30 11:48:32;;;;;;;4.70;4.00;;;;;;;11.66;100.00;96211.59;4955236;28;101973;-72
2022/12/30 11:51:02;;;;;;;3.47;2.77;;;;;;;11.45;100.00;96200.00;4954975;28;106004;-72
2022/12/30 11:53:37;;;;;;;0.90;0.90;;;;;;;11.69;100.00;96195.06;4954335;28;105703;-72
2022/12/30 11:56:05;;;;;;;1.93;1.43;;;;;;;11.87;100.00;96189.25;4955164;28;102093;-76
2022/12/30 11:58:36;;;;;;;1.47;1.40;;;;;;;12.02;100.00;96181.31;4955387;28;105139;-81
2022/12/30 12:01:06;;;;;;;3.30;1.67;;;;;;;12.08;100.00;96182.91;4957827;28;105605;-81
2022/12/30 12:03:47;;;;;;;2.20;2.00;;;;;;;11.96;100.00;96180.50;4955230;28;104830;-80
2022/12/30 12:06:14;;;;;;;1.50;1.40;;;;;;;12.17;100.00;96187.47;4954264;28;105696;-80
2022/12/30 12:08:51;;;;;;;1.73;1.50;;;;;;;12.28;100.00;96174.94;4954941;28;101908;-80
2022/12/30 12:11:21;;;;;;;1.20;1.13;;;;;;;12.24;100.00;96171.19;4955201;28;105168;-80
2022/12/30 12:14:03;;;;;;;1.40;0.77;;;;;;;12.29;100.00;96171.22;4954687;28;105878;-80
2022/12/30 12:16:38;;;;;;;0.90;0.90;;;;;;;12.34;100.00;96164.03;4955073;28;102104;-80
2022/12/30 12:22:31;;;;;;;0.77;0.77;;;;;;;12.32;100.00;96154.69;4971705;28;102892;-80
2022/12/30 12:25:03;;;;;;;0.87;0.87;;;;;;;12.47;100.00;96160.81;4958374;28;101842;-80
2022/12/30 12:27:30;;;;;;;1.37;1.27;;;;;;;12.61;100.00;96163.75;4953814;28;105366;-80
2022/12/30 12:29:59;;;;;;;2.17;1.03;;;;;;;12.91;100.00;96155.72;4972312;28;101773;-80
2022/12/30 12:33:04;;;;;;;1.00;1.00;;;;;;;13.09;100.00;96158.59;4954888;28;105199;-80
2022/12/30 12:35:42;;;;;;;1.17;0.90;;;;;;;13.25;100.00;96162.03;4954086;28;105214;-81
2022/12/30 12:38:25;;;;;;;1.10;1.00;;;;;;;13.50;100.00;96159.25;4954497;28;102531;-81